Central Coast CX #3

Cyclocross: Saturday Sept. 9, 2017 – Schedule
Part of the 2017-18 CCCX Cyclocross Series

Results: Group B

Men B

Place # First Last City Cat Team License Age Laps @ Time Points
1 69 Emile GOGUELY Palo Alto, CA 3 0394972 26 7 @ 00:46:18 50
2 21 Nate THALHAMER Santa Rosa, CA 5 Top Club 0457848 14 7 @ 00:46:30 47
3 56 David REECKMANN San Francisco, CA 3 0518167 32 7 @ 00:48:03 45
4 2 Matthew WHITBY Stanford, CA 5 0459226 28 7 @ 00:48:08 44
5 3 Grant HEURING Fresno, CA 5 ACADEMY 0496677 16 7 @ 00:48:31 43
6 1 McKay KINSEY Fresno, CA 5 ACADEMY 0423654 14 7 @ 00:48:33 42
7 76 Jason PRICE 5 8888302 7 @ 00:49:12 41
8 66 Gavin SAFFIAN San Anselmo, CA 3 0491112 28 7 @ 00:49:15 40
9 75 William ZHANG Los Angeles, CA 4 Squareone Helen's 0413513 35 7 @ 00:49:21 39
10 8 Peter AMBIEL Los Altos, CA 5 SunPower Racing 0509523 24 7 @ 00:49:22 38
11 26 Kyle TAYLOR Santa Cruz, CA 3 0328118 31 7 @ 00:50:44 37
12 57 Alan BARBARAN 5 King Kog Oakland 8888105 7 @ 00:50:49 36
13 20 Chris TORP 5 King Kog 8888209 7 @ 00:51:13 35
14 25 Eric BRIGHTON 5 8888303 7 @ 00:51:35 34
15 9 Wayne VANAMAN Emeryville, CA 5 King Kog 0468213 34 7 @ 00:52:35 33
16 7 Tyler ELLIOT 5 541431 6 @ 00:46:32 32
17 74 Grant EMOFF Salt Lake City, UT 5 Square One 0499108 26 6 @ 00:47:36 31
18 73 Alvin CHAN San Francisco, CA 5 King Kog 0394319 36 6 @ 00:47:39 30
DNP 28 Bernardo TAPIA Redwood City, CA 4 SunPower Racing 0456472 44 - 1
DNP 70 Nathan VAHLBERG Mountain View, CA 4 Rock Lobster 0516069 13 - 1
Field: 20 of 99

Masters Men 35+ B

Place # First Last City Cat Team License Age Laps @ Time Points
1 318 Matthew KLENE San Francisco, CA 5 0470333 42 7 @ 00:49:37 50
2 354 Leonard GARZA San Francisco, CA 5 Stage 1 Cycling 0439297 42 7 @ 00:49:39 47
3 316 Ben MOOMEY Brentwood, CA 5 CBRE Racing 0406825 41 7 @ 00:50:20 45
4 315 Jason VILLARIN Oakland, CA 5 Team Roaring Mouse 0515193 41 7 @ 00:52:39 44
5 312 Cliff GOLZ Santa Cruz, CA 3 The Pony Shop 0254308 42 6 @ 00:46:22 43
6 319 Brett BUTLES 5 8888304 6 @ 00:46:53 42
DNP 307 Pablo VIRAMONTES Campbell, CA 5 0459938 38 - 1
DNP 314 Timothy TURNBULL Castroville, CA 4 Los Gatos Bicycle Racing Club 0309759 52 - 1
Field: 8 of 100

Masters Men 45+ B

Place # First Last City Cat Team License Age Laps @ Time Points
1 607 Warren MARSHALL Gilroy, CA 5 The Fast Forward 0493425 51 7 @ 00:48:25 50
2 660 Ken CASHION Castro Valley, CA 5 King Kog 0006395 48 7 @ 00:49:22 47
3 662 Sean MELCHIONDA Mill Valley, CA 3 Divine Electric Norcal 0068261 47 7 @ 00:50:19 45
4 614 Philip VRIELING Modesto, CA 3 Funsport Bikes Cycling Team 0185026 54 7 @ 00:51:17 44
5 610 Andrew HORVAI San Mateo, CA 4 Pen Velo Racing/Summit Bicycles 0418485 50 7 @ 00:51:48 43
6 654 Michael LOFTESNES Martinez, CA 4 CBRE Racing 0053118 52 6 @ 00:45:39 42
7 604 Boris FOELSCH 5 Menlo Velo 360394 6 @ 00:45:45 41
8 659 Darrel BROKESHOULDER 5 8888207 6 @ 00:45:49 40
9 602 Scott ZAVACK Morgan Hill, CA 4 0226979 50 6 @ 00:46:26 39
10 661 Kurt MARTIN San Francisco, CA 5 0540216 54 6 @ 00:46:42 38
11 615 Michael SCHALLER Campbell, CA 4 0253585 50 6 @ 00:46:59 37
12 605 Ray MENDOZA 5 24025 6 @ 00:47:01 36
13 652 John BONO Santa Cruz, CA 4 0303921 49 6 @ 00:48:47 35
14 655 Shawn VARNER Templeton, CA 4 ChristianCycling Colorado 0096154 48 6 @ 00:49:00 34
15 601 Paul YOUNG Morgan Hill, CA 3 The Fast Forward 0378462 49 6 @ 00:50:40 33
DNP 650 Brian GOKEY San Jose, CA 4 0392565 45 6 @ 00:46:42 1
Field: 16 of 100

Single Speed Men B

Place # First Last City Cat Team License Age Laps @ Time Points
1 201 Jason PRATER Oakland, CA 3 RMRC p/b Turin Bicycles 0244064 34 7 @ 00:50:45 50
2 224 Justin HINTZ Sacramento, CA 3 0368842 42 7 @ 00:51:18 47
3 250 Brian FERRARIO San Jose, CA 3 0088248 51 7 @ 00:51:27 45
4 202 Kevin PELLEY Salinas, CA 5 0206394 28 7 @ 00:52:13 44
5 264 Christian BRYAN 5 8888208 7 @ 00:52:15 43
6 274 Justin MORGAN Fresno, CA 3 ACADEMY 0238135 44 7 @ 00:52:36 42
7 273 Chase LATTA Oakland, CA 5 Team Oakland 0524494 35 7 @ 00:52:47 41
DNP 225 Neill MCCUMBER 5 8888306 - 1
Field: 8 of 100
Table notes: